香港 の空港の天気 - METARとTAF

香港国際空港 ( VHHH / HKG ) - 香港 赤リョウ角
飛行場実況気象(Metar)
観測時間01/22 23:30 HKT (01/22 15:30 UTC)
風向・風速西 1m/s
視程5000m
天気現象
なし
気温20℃
湿度83%
気圧1013hPa
METARVHHH 221530Z 26002KT 5000 NSC 20/17 Q1013 NOSIG
過去の天気等 Google飛行場航空写真 Wunderground天気予報

過去48時間のMETAR

飛行場予報(TAF)
発表時間: 1/22 19:00 HKT (1/22 11:00 UTC)
予報対象時間: 22日20時 HKT ~ 24日2時 HKT
風向・風速北 5m/s
視程7000m
少しの雲 雲底高度 610m
23日10時 HKT ~ 23日12時 HKT に徐々に
風向・風速西北西 5m/s
23日10時 HKT ~ 23日18時 HKT に一時的に
視程3500m
天気現象煙霧
23日18時 HKT ~ 23日20時 HKT に徐々に
風向・風速不定 3m/s
TAF VHHH 221100Z 2212/2318 36010KT 7000 FEW020 TX25/2306Z TN17/2222Z
BECMG 2302/2304 30010KT
TEMPO 2302/2310 3500 HZ
BECMG 2310/2312 VRB05KT